Gillette, WY (82716)

9:24 AM MST on December 08, 2016 (GMT -0700)
McCann Heights, central Gillette | | Change Station
Active Advisory: Wind Chill Advisory

Elev 4590 ft 44.28 °N, 105.50 °W | Updated 24 seconds ago

Clear
Clear
5.5 °F
Feels Like 6 °F
N
2.0
Wind Variable Wind from ESE

Today
High -- | Low -- °F
--% Chance of Precip.
Yesterday
High -- | Low -- °F
Precip. -- in
Pressure 30.79 in
Visibility 10.0 miles
Clouds Clear
Windchill 6 °F
Dew Point -3 °F
Humidity 65%
Rainfall 0.00 in
Snow Depth Not available.
7:25 AM 4:22 PM
Waxing Gibbous, 64% visible
METAR KGCC 081553Z AUTO 00000KT 10SM CLR M22/M24 A3045 RMK AO2 SLP425 T12171244
Pressure 30.79 in
Visibility 10.0 miles
Clouds Clear
Windchill 6 °F
Dew Point -3 °F
Humidity 65%
Rainfall 0.00 in
Snow Depth Not available.
7:25 AM 4:22 PM
Waxing Gibbous, 64% visible
METAR KGCC 081553Z AUTO 00000KT 10SM CLR M22/M24 A3045 RMK AO2 SLP425 T12171244

10-Day Weather Forecast

Almanac

Astronomy

Dec. 08, 2016 Rise Set
Actual Time
Civil Twilight
Nautical Twilight
Astronomical Twilight
Moon
Length of Visible Light
Length of Day
Tomorrow will be .
, % of the Moon is Illuminated

Today's Extremes

State Highs State Lows

Community

WunderPhotos

Upload Photos

1,956,274 photos uploaded!

WunderBlog® & News

Nearby

Air Quality

  Air Quality AQ Index Pollutant
Not available.

Snow Depth

Station Depth Elevation

Earthquake Activity

City Distance Mag. Time & Date
Minimum magnitude displayed is 2.5.

Coastal Water Temperatures

Place Temperature

Stations

Nearby Weather Stations

Station Location Temp. Windchill Dew Point Humidity Wind Precip. Elev Updated Type
                   

Watches & Warnings

Wind Chill Advisory
Issued: 5:05 AM CST Dec. 8, 2016 – National Weather Service

... Wind Chill Advisory remains in effect until 11 am MST /noon
CST/ this morning...

* wind chill values will be as low as 20 below to 30 below zero
through late this morning.

Precautionary/preparedness actions...

A Wind Chill Advisory means that cold air and the wind will
combine to create low wind chills. Frost bite and hypothermia can
occur if precautions are not taken. Make sure you wear a hat and
gloves.